sensor_id;sensor_type;location;lat;lon;timestamp;P1;durP1;ratioP1;P2;durP2;ratioP2
75169;SDS011;63749;49.186;9.222;2023-08-06T00:01:11;7.00;;;4.50;;
75169;SDS011;63749;49.186;9.222;2023-08-06T00:03:36;7.15;;;4.88;;
75169;SDS011;63749;49.186;9.222;2023-08-06T00:06:02;7.30;;;4.70;;
75169;SDS011;63749;49.186;9.222;2023-08-06T00:08:27;7.47;;;4.87;;
75169;SDS011;63749;49.186;9.222;2023-08-06T00:10:52;7.83;;;5.00;;
75169;SDS011;63749;49.186;9.222;2023-08-06T00:13:18;7.90;;;5.23;;
75169;SDS011;63749;49.186;9.222;2023-08-06T00:15:43;8.37;;;5.10;;
75169;SDS011;63749;49.186;9.222;2023-08-06T00:18:08;8.67;;;5.60;;
75169;SDS011;63749;49.186;9.222;2023-08-06T00:20:34;10.23;;;5.67;;
75169;SDS011;63749;49.186;9.222;2023-08-06T00:22:59;9.50;;;5.53;;
75169;SDS011;63749;49.186;9.222;2023-08-06T00:25:24;8.10;;;5.57;;
75169;SDS011;63749;49.186;9.222;2023-08-06T00:27:50;9.93;;;5.73;;
75169;SDS011;63749;49.186;9.222;2023-08-06T00:30:15;11.53;;;5.53;;
75169;SDS011;63749;49.186;9.222;2023-08-06T00:32:40;9.35;;;5.40;;
75169;SDS011;63749;49.186;9.222;2023-08-06T00:35:06;10.23;;;5.70;;
75169;SDS011;63749;49.186;9.222;2023-08-06T00:37:31;8.63;;;5.83;;
75169;SDS011;63749;49.186;9.222;2023-08-06T00:39:57;10.80;;;6.30;;
75169;SDS011;63749;49.186;9.222;2023-08-06T00:42:23;11.30;;;5.95;;
75169;SDS011;63749;49.186;9.222;2023-08-06T00:44:48;10.90;;;6.53;;
75169;SDS011;63749;49.186;9.222;2023-08-06T00:47:14;11.23;;;6.47;;
75169;SDS011;63749;49.186;9.222;2023-08-06T00:49:40;10.77;;;6.32;;
75169;SDS011;63749;49.186;9.222;2023-08-06T00:52:06;11.73;;;7.37;;
75169;SDS011;63749;49.186;9.222;2023-08-06T00:54:33;11.35;;;6.90;;
75169;SDS011;63749;49.186;9.222;2023-08-06T00:56:59;12.27;;;6.95;;
75169;SDS011;63749;49.186;9.222;2023-08-06T00:59:26;12.85;;;7.38;;
75169;SDS011;63749;49.186;9.222;2023-08-06T01:01:52;13.60;;;7.30;;
75169;SDS011;63749;49.186;9.222;2023-08-06T01:04:17;12.75;;;7.72;;
75169;SDS011;63749;49.186;9.222;2023-08-06T01:06:45;12.13;;;6.93;;
75169;SDS011;63749;49.186;9.222;2023-08-06T01:09:21;12.43;;;7.60;;
75169;SDS011;63749;49.186;9.222;2023-08-06T01:12:06;10.45;;;6.82;;
75169;SDS011;63749;49.186;9.222;2023-08-06T01:14:54;12.43;;;6.78;;
75169;SDS011;63749;49.186;9.222;2023-08-06T01:17:25;12.88;;;6.57;;
75169;SDS011;63749;49.186;9.222;2023-08-06T01:19:52;13.00;;;7.47;;
75169;SDS011;63749;49.186;9.222;2023-08-06T01:22:18;10.35;;;6.95;;
75169;SDS011;63749;49.186;9.222;2023-08-06T01:24:44;10.60;;;6.90;;
75169;SDS011;63749;49.186;9.222;2023-08-06T01:30:15;11.50;;;7.00;;
75169;SDS011;63749;49.186;9.222;2023-08-06T01:32:39;11.18;;;7.00;;
75169;SDS011;63749;49.186;9.222;2023-08-06T01:35:08;9.63;;;6.60;;
75169;SDS011;63749;49.186;9.222;2023-08-06T01:37:36;11.13;;;7.20;;
75169;SDS011;63749;49.186;9.222;2023-08-06T01:40:05;8.95;;;6.80;;
75169;SDS011;63749;49.186;9.222;2023-08-06T01:42:34;8.95;;;6.45;;
75169;SDS011;63749;49.186;9.222;2023-08-06T01:44:59;11.83;;;6.53;;
75169;SDS011;63749;49.186;9.222;2023-08-06T01:47:26;11.15;;;6.65;;
75169;SDS011;63749;49.186;9.222;2023-08-06T01:49:51;9.07;;;5.97;;
75169;SDS011;63749;49.186;9.222;2023-08-06T01:52:16;7.27;;;5.37;;
75169;SDS011;63749;49.186;9.222;2023-08-06T01:54:42;8.00;;;5.70;;
75169;SDS011;63749;49.186;9.222;2023-08-06T01:57:07;9.83;;;5.73;;
75169;SDS011;63749;49.186;9.222;2023-08-06T01:59:32;7.23;;;4.87;;
75169;SDS011;63749;49.186;9.222;2023-08-06T02:01:58;6.55;;;5.10;;
75169;SDS011;63749;49.186;9.222;2023-08-06T02:04:24;8.77;;;5.20;;
75169;SDS011;63749;49.186;9.222;2023-08-06T02:06:49;7.00;;;5.30;;
75169;SDS011;63749;49.186;9.222;2023-08-06T02:09:14;7.07;;;5.00;;
75169;SDS011;63749;49.186;9.222;2023-08-06T02:11:39;7.97;;;5.30;;
75169;SDS011;63749;49.186;9.222;2023-08-06T02:14:05;9.10;;;5.23;;
75169;SDS011;63749;49.186;9.222;2023-08-06T02:16:30;8.30;;;5.40;;
75169;SDS011;63749;49.186;9.222;2023-08-06T02:18:55;7.43;;;5.55;;
75169;SDS011;63749;49.186;9.222;2023-08-06T02:21:21;10.40;;;5.97;;
75169;SDS011;63749;49.186;9.222;2023-08-06T02:23:46;8.97;;;6.30;;
75169;SDS011;63749;49.186;9.222;2023-08-06T02:26:11;8.00;;;5.77;;
75169;SDS011;63749;49.186;9.222;2023-08-06T02:28:37;8.87;;;6.03;;
75169;SDS011;63749;49.186;9.222;2023-08-06T02:31:02;8.23;;;5.93;;
75169;SDS011;63749;49.186;9.222;2023-08-06T02:33:27;11.03;;;6.40;;
75169;SDS011;63749;49.186;9.222;2023-08-06T02:35:59;10.57;;;6.40;;
75169;SDS011;63749;49.186;9.222;2023-08-06T02:38:26;10.63;;;5.57;;
75169;SDS011;63749;49.186;9.222;2023-08-06T02:40:51;7.70;;;5.97;;
75169;SDS011;63749;49.186;9.222;2023-08-06T02:43:16;8.77;;;5.93;;
75169;SDS011;63749;49.186;9.222;2023-08-06T02:46:08;8.32;;;5.88;;
75169;SDS011;63749;49.186;9.222;2023-08-06T02:48:33;8.27;;;5.53;;
75169;SDS011;63749;49.186;9.222;2023-08-06T02:50:58;7.30;;;5.10;;
75169;SDS011;63749;49.186;9.222;2023-08-06T02:53:24;7.00;;;5.47;;
75169;SDS011;63749;49.186;9.222;2023-08-06T02:55:50;8.10;;;5.30;;
75169;SDS011;63749;49.186;9.222;2023-08-06T02:58:15;9.87;;;5.23;;
75169;SDS011;63749;49.186;9.222;2023-08-06T03:00:42;7.50;;;5.35;;
75169;SDS011;63749;49.186;9.222;2023-08-06T03:03:08;10.00;;;4.78;;
75169;SDS011;63749;49.186;9.222;2023-08-06T03:05:33;6.80;;;4.70;;
75169;SDS011;63749;49.186;9.222;2023-08-06T03:07:58;9.30;;;4.60;;
75169;SDS011;63749;49.186;9.222;2023-08-06T03:10:24;5.80;;;4.20;;
75169;SDS011;63749;49.186;9.222;2023-08-06T03:12:49;6.10;;;4.57;;
75169;SDS011;63749;49.186;9.222;2023-08-06T03:15:14;9.85;;;4.93;;
75169;SDS011;63749;49.186;9.222;2023-08-06T03:17:40;7.67;;;4.50;;
75169;SDS011;63749;49.186;9.222;2023-08-06T03:20:05;10.97;;;5.07;;
75169;SDS011;63749;49.186;9.222;2023-08-06T03:22:31;10.02;;;5.80;;
75169;SDS011;63749;49.186;9.222;2023-08-06T03:24:56;8.53;;;5.13;;
75169;SDS011;63749;49.186;9.222;2023-08-06T03:27:22;7.10;;;5.20;;
75169;SDS011;63749;49.186;9.222;2023-08-06T03:29:50;11.93;;;4.50;;
75169;SDS011;63749;49.186;9.222;2023-08-06T03:32:15;6.72;;;4.90;;
75169;SDS011;63749;49.186;9.222;2023-08-06T03:34:41;6.27;;;4.20;;
75169;SDS011;63749;49.186;9.222;2023-08-06T03:37:06;8.57;;;5.27;;
75169;SDS011;63749;49.186;9.222;2023-08-06T03:39:31;6.30;;;4.30;;
75169;SDS011;63749;49.186;9.222;2023-08-06T03:41:57;5.40;;;3.90;;
75169;SDS011;63749;49.186;9.222;2023-08-06T03:44:22;6.33;;;4.23;;
75169;SDS011;63749;49.186;9.222;2023-08-06T03:46:47;7.30;;;4.10;;
75169;SDS011;63749;49.186;9.222;2023-08-06T03:49:13;5.77;;;3.60;;
75169;SDS011;63749;49.186;9.222;2023-08-06T03:51:38;6.83;;;3.50;;
75169;SDS011;63749;49.186;9.222;2023-08-06T03:54:03;13.13;;;3.70;;
75169;SDS011;63749;49.186;9.222;2023-08-06T03:56:29;5.67;;;3.23;;
75169;SDS011;63749;49.186;9.222;2023-08-06T03:58:54;4.57;;;3.40;;
75169;SDS011;63749;49.186;9.222;2023-08-06T04:01:19;4.80;;;3.07;;
75169;SDS011;63749;49.186;9.222;2023-08-06T04:03:45;4.20;;;3.03;;
75169;SDS011;63749;49.186;9.222;2023-08-06T04:06:10;4.50;;;3.10;;
75169;SDS011;63749;49.186;9.222;2023-08-06T04:08:35;4.13;;;2.90;;
75169;SDS011;63749;49.186;9.222;2023-08-06T04:11:01;6.80;;;2.90;;
75169;SDS011;63749;49.186;9.222;2023-08-06T04:13:26;6.60;;;2.93;;
75169;SDS011;63749;49.186;9.222;2023-08-06T04:15:51;5.80;;;2.67;;
75169;SDS011;63749;49.186;9.222;2023-08-06T04:18:18;5.75;;;2.35;;
75169;SDS011;63749;49.186;9.222;2023-08-06T04:20:46;4.67;;;2.43;;
75169;SDS011;63749;49.186;9.222;2023-08-06T04:23:14;3.88;;;2.60;;
75169;SDS011;63749;49.186;9.222;2023-08-06T04:25:39;4.87;;;2.90;;
75169;SDS011;63749;49.186;9.222;2023-08-06T04:28:05;7.17;;;2.83;;
75169;SDS011;63749;49.186;9.222;2023-08-06T04:30:32;5.43;;;2.75;;
75169;SDS011;63749;49.186;9.222;2023-08-06T04:32:57;5.23;;;2.67;;
75169;SDS011;63749;49.186;9.222;2023-08-06T04:35:23;5.40;;;2.40;;
75169;SDS011;63749;49.186;9.222;2023-08-06T04:37:48;4.33;;;2.50;;
75169;SDS011;63749;49.186;9.222;2023-08-06T04:40:14;4.53;;;2.10;;
75169;SDS011;63749;49.186;9.222;2023-08-06T04:42:39;3.97;;;2.10;;
75169;SDS011;63749;49.186;9.222;2023-08-06T04:45:05;4.77;;;2.00;;
75169;SDS011;63749;49.186;9.222;2023-08-06T04:47:30;4.55;;;1.90;;
75169;SDS011;63749;49.186;9.222;2023-08-06T04:49:56;3.33;;;1.70;;
75169;SDS011;63749;49.186;9.222;2023-08-06T04:52:21;6.83;;;1.60;;
75169;SDS011;63749;49.186;9.222;2023-08-06T04:54:46;4.50;;;1.50;;
75169;SDS011;63749;49.186;9.222;2023-08-06T04:57:12;3.67;;;1.57;;
75169;SDS011;63749;49.186;9.222;2023-08-06T04:59:37;4.43;;;1.50;;
75169;SDS011;63749;49.186;9.222;2023-08-06T05:02:03;4.00;;;1.50;;
75169;SDS011;63749;49.186;9.222;2023-08-06T05:04:29;3.87;;;1.60;;
75169;SDS011;63749;49.186;9.222;2023-08-06T05:06:54;3.70;;;1.30;;
75169;SDS011;63749;49.186;9.222;2023-08-06T05:09:19;6.10;;;1.60;;
75169;SDS011;63749;49.186;9.222;2023-08-06T05:11:46;2.90;;;1.00;;
75169;SDS011;63749;49.186;9.222;2023-08-06T05:14:11;4.55;;;1.15;;
75169;SDS011;63749;49.186;9.222;2023-08-06T05:16:37;3.77;;;1.20;;
75169;SDS011;63749;49.186;9.222;2023-08-06T05:19:02;4.33;;;1.13;;
75169;SDS011;63749;49.186;9.222;2023-08-06T05:21:27;4.13;;;1.20;;
75169;SDS011;63749;49.186;9.222;2023-08-06T05:23:53;4.70;;;1.33;;
75169;SDS011;63749;49.186;9.222;2023-08-06T05:26:19;4.22;;;1.38;;
75169;SDS011;63749;49.186;9.222;2023-08-06T05:28:44;4.43;;;1.23;;
75169;SDS011;63749;49.186;9.222;2023-08-06T05:31:10;5.63;;;1.30;;
75169;SDS011;63749;49.186;9.222;2023-08-06T05:33:36;3.53;;;1.53;;
75169;SDS011;63749;49.186;9.222;2023-08-06T05:36:01;3.88;;;1.30;;
75169;SDS011;63749;49.186;9.222;2023-08-06T05:38:27;6.20;;;1.43;;
75169;SDS011;63749;49.186;9.222;2023-08-06T05:40:52;3.40;;;1.30;;
75169;SDS011;63749;49.186;9.222;2023-08-06T05:43:17;4.30;;;1.20;;
75169;SDS011;63749;49.186;9.222;2023-08-06T05:45:46;4.00;;;1.30;;
75169;SDS011;63749;49.186;9.222;2023-08-06T05:48:11;2.95;;;1.13;;
75169;SDS011;63749;49.186;9.222;2023-08-06T05:50:37;4.35;;;1.05;;
75169;SDS011;63749;49.186;9.222;2023-08-06T05:53:02;4.70;;;1.40;;
75169;SDS011;63749;49.186;9.222;2023-08-06T05:55:28;3.13;;;1.10;;
75169;SDS011;63749;49.186;9.222;2023-08-06T05:57:53;4.77;;;1.10;;
75169;SDS011;63749;49.186;9.222;2023-08-06T06:00:20;3.30;;;1.25;;
75169;SDS011;63749;49.186;9.222;2023-08-06T06:02:46;3.58;;;1.02;;
75169;SDS011;63749;49.186;9.222;2023-08-06T06:05:11;5.87;;;1.40;;
75169;SDS011;63749;49.186;9.222;2023-08-06T06:07:36;4.63;;;1.10;;
75169;SDS011;63749;49.186;9.222;2023-08-06T06:10:02;3.77;;;1.20;;
75169;SDS011;63749;49.186;9.222;2023-08-06T06:12:27;2.05;;;0.90;;
75169;SDS011;63749;49.186;9.222;2023-08-06T06:14:53;3.20;;;1.00;;
75169;SDS011;63749;49.186;9.222;2023-08-06T06:17:18;2.33;;;0.90;;
75169;SDS011;63749;49.186;9.222;2023-08-06T06:19:43;2.33;;;1.03;;
75169;SDS011;63749;49.186;9.222;2023-08-06T06:22:09;3.10;;;0.97;;
75169;SDS011;63749;49.186;9.222;2023-08-06T06:24:34;4.70;;;1.10;;
75169;SDS011;63749;49.186;9.222;2023-08-06T06:26:59;2.23;;;0.90;;
75169;SDS011;63749;49.186;9.222;2023-08-06T06:29:25;3.50;;;1.00;;
75169;SDS011;63749;49.186;9.222;2023-08-06T06:31:50;2.47;;;0.90;;
75169;SDS011;63749;49.186;9.222;2023-08-06T06:34:16;4.03;;;0.87;;
75169;SDS011;63749;49.186;9.222;2023-08-06T06:36:41;2.00;;;0.90;;
75169;SDS011;63749;49.186;9.222;2023-08-06T06:39:06;5.07;;;1.10;;
75169;SDS011;63749;49.186;9.222;2023-08-06T06:41:33;3.70;;;0.98;;
75169;SDS011;63749;49.186;9.222;2023-08-06T06:43:58;2.83;;;1.00;;
75169;SDS011;63749;49.186;9.222;2023-08-06T06:46:24;2.00;;;0.80;;
75169;SDS011;63749;49.186;9.222;2023-08-06T06:48:49;3.43;;;0.90;;
75169;SDS011;63749;49.186;9.222;2023-08-06T06:51:15;2.13;;;0.70;;
75169;SDS011;63749;49.186;9.222;2023-08-06T06:53:40;1.50;;;0.70;;
75169;SDS011;63749;49.186;9.222;2023-08-06T06:56:05;2.30;;;0.70;;
75169;SDS011;63749;49.186;9.222;2023-08-06T06:58:31;1.70;;;0.60;;
75169;SDS011;63749;49.186;9.222;2023-08-06T07:00:57;3.28;;;0.80;;
75169;SDS011;63749;49.186;9.222;2023-08-06T07:03:22;1.57;;;0.70;;
75169;SDS011;63749;49.186;9.222;2023-08-06T07:05:49;2.27;;;0.80;;
75169;SDS011;63749;49.186;9.222;2023-08-06T07:08:14;2.17;;;0.60;;
75169;SDS011;63749;49.186;9.222;2023-08-06T07:10:40;1.23;;;0.70;;
75169;SDS011;63749;49.186;9.222;2023-08-06T07:13:06;1.50;;;0.60;;
75169;SDS011;63749;49.186;9.222;2023-08-06T07:15:32;1.60;;;0.60;;
75169;SDS011;63749;49.186;9.222;2023-08-06T07:17:57;0.93;;;0.60;;
75169;SDS011;63749;49.186;9.222;2023-08-06T07:20:22;0.85;;;0.60;;
75169;SDS011;63749;49.186;9.222;2023-08-06T07:22:48;1.60;;;0.60;;
75169;SDS011;63749;49.186;9.222;2023-08-06T07:25:14;0.90;;;0.60;;
75169;SDS011;63749;49.186;9.222;2023-08-06T07:27:40;1.93;;;0.73;;
75169;SDS011;63749;49.186;9.222;2023-08-06T07:30:05;2.20;;;0.60;;
75169;SDS011;63749;49.186;9.222;2023-08-06T07:32:31;1.77;;;0.60;;
75169;SDS011;63749;49.186;9.222;2023-08-06T07:34:57;0.80;;;0.60;;
75169;SDS011;63749;49.186;9.222;2023-08-06T07:37:25;0.90;;;0.73;;
75169;SDS011;63749;49.186;9.222;2023-08-06T07:39:53;1.23;;;0.60;;
75169;SDS011;63749;49.186;9.222;2023-08-06T07:42:18;1.23;;;0.63;;
75169;SDS011;63749;49.186;9.222;2023-08-06T07:44:49;3.08;;;0.65;;
75169;SDS011;63749;49.186;9.222;2023-08-06T07:47:19;0.68;;;0.55;;
75169;SDS011;63749;49.186;9.222;2023-08-06T07:49:44;0.93;;;0.70;;
75169;SDS011;63749;49.186;9.222;2023-08-06T07:52:10;0.60;;;0.50;;
75169;SDS011;63749;49.186;9.222;2023-08-06T07:54:36;2.20;;;0.60;;
75169;SDS011;63749;49.186;9.222;2023-08-06T07:57:01;2.13;;;0.70;;
75169;SDS011;63749;49.186;9.222;2023-08-06T07:59:26;0.82;;;0.70;;
75169;SDS011;63749;49.186;9.222;2023-08-06T08:01:52;1.97;;;1.27;;
75169;SDS011;63749;49.186;9.222;2023-08-06T08:04:17;4.33;;;2.23;;
75169;SDS011;63749;49.186;9.222;2023-08-06T08:06:42;1.83;;;0.80;;
75169;SDS011;63749;49.186;9.222;2023-08-06T08:09:08;1.40;;;0.60;;
75169;SDS011;63749;49.186;9.222;2023-08-06T08:11:33;1.30;;;0.60;;
75169;SDS011;63749;49.186;9.222;2023-08-06T08:13:58;0.50;;;0.50;;
75169;SDS011;63749;49.186;9.222;2023-08-06T08:16:24;1.48;;;0.63;;
75169;SDS011;63749;49.186;9.222;2023-08-06T08:18:49;0.50;;;0.50;;
75169;SDS011;63749;49.186;9.222;2023-08-06T08:21:14;1.63;;;0.70;;
75169;SDS011;63749;49.186;9.222;2023-08-06T08:23:40;1.83;;;0.63;;
75169;SDS011;63749;49.186;9.222;2023-08-06T08:26:07;1.58;;;0.60;;
75169;SDS011;63749;49.186;9.222;2023-08-06T08:28:32;1.20;;;0.60;;
75169;SDS011;63749;49.186;9.222;2023-08-06T08:30:57;1.20;;;0.70;;
75169;SDS011;63749;49.186;9.222;2023-08-06T08:33:23;2.50;;;0.70;;
75169;SDS011;63749;49.186;9.222;2023-08-06T08:35:48;1.00;;;0.65;;
75169;SDS011;63749;49.186;9.222;2023-08-06T08:38:13;2.37;;;0.73;;
75169;SDS011;63749;49.186;9.222;2023-08-06T08:40:41;0.90;;;0.70;;
75169;SDS011;63749;49.186;9.222;2023-08-06T08:43:14;1.63;;;0.60;;
75169;SDS011;63749;49.186;9.222;2023-08-06T08:45:40;1.50;;;0.70;;
75169;SDS011;63749;49.186;9.222;2023-08-06T08:48:08;1.00;;;0.70;;
75169;SDS011;63749;49.186;9.222;2023-08-06T08:50:37;3.40;;;1.73;;
75169;SDS011;63749;49.186;9.222;2023-08-06T08:53:02;0.60;;;0.60;;
75169;SDS011;63749;49.186;9.222;2023-08-06T08:55:28;0.88;;;0.50;;
75169;SDS011;63749;49.186;9.222;2023-08-06T08:57:53;1.00;;;0.70;;
75169;SDS011;63749;49.186;9.222;2023-08-06T09:00:19;1.40;;;0.50;;
75169;SDS011;63749;49.186;9.222;2023-08-06T09:02:44;1.08;;;0.80;;
75169;SDS011;63749;49.186;9.222;2023-08-06T09:05:10;1.20;;;0.60;;
75169;SDS011;63749;49.186;9.222;2023-08-06T09:07:40;1.35;;;0.60;;
75169;SDS011;63749;49.186;9.222;2023-08-06T09:10:11;0.93;;;0.57;;
75169;SDS011;63749;49.186;9.222;2023-08-06T09:12:39;0.70;;;0.63;;
75169;SDS011;63749;49.186;9.222;2023-08-06T09:15:05;0.65;;;0.60;;
75169;SDS011;63749;49.186;9.222;2023-08-06T09:17:31;0.47;;;0.40;;
75169;SDS011;63749;49.186;9.222;2023-08-06T09:19:56;0.90;;;0.60;;
75169;SDS011;63749;49.186;9.222;2023-08-06T09:22:21;0.60;;;0.50;;
75169;SDS011;63749;49.186;9.222;2023-08-06T09:24:47;1.30;;;0.50;;
75169;SDS011;63749;49.186;9.222;2023-08-06T09:27:12;0.73;;;0.57;;
75169;SDS011;63749;49.186;9.222;2023-08-06T09:29:45;1.10;;;0.50;;
75169;SDS011;63749;49.186;9.222;2023-08-06T09:32:11;1.17;;;0.60;;
75169;SDS011;63749;49.186;9.222;2023-08-06T09:34:41;0.60;;;0.50;;
75169;SDS011;63749;49.186;9.222;2023-08-06T09:37:10;0.52;;;0.50;;
75169;SDS011;63749;49.186;9.222;2023-08-06T09:39:37;1.45;;;0.57;;
75169;SDS011;63749;49.186;9.222;2023-08-06T09:42:03;1.33;;;0.60;;
75169;SDS011;63749;49.186;9.222;2023-08-06T09:44:30;0.70;;;0.57;;
75169;SDS011;63749;49.186;9.222;2023-08-06T09:46:57;0.87;;;0.60;;
75169;SDS011;63749;49.186;9.222;2023-08-06T09:49:27;0.80;;;0.65;;
75169;SDS011;63749;49.186;9.222;2023-08-06T09:52:13;1.60;;;0.68;;
75169;SDS011;63749;49.186;9.222;2023-08-06T09:54:41;1.13;;;0.73;;
75169;SDS011;63749;49.186;9.222;2023-08-06T09:57:08;1.55;;;0.60;;
75169;SDS011;63749;49.186;9.222;2023-08-06T09:59:34;0.70;;;0.70;;
75169;SDS011;63749;49.186;9.222;2023-08-06T10:02:00;0.80;;;0.80;;
75169;SDS011;63749;49.186;9.222;2023-08-06T10:04:27;1.88;;;0.80;;
75169;SDS011;63749;49.186;9.222;2023-08-06T10:06:54;2.08;;;0.70;;
75169;SDS011;63749;49.186;9.222;2023-08-06T10:09:19;5.50;;;0.70;;
75169;SDS011;63749;49.186;9.222;2023-08-06T10:11:47;0.93;;;0.60;;
75169;SDS011;63749;49.186;9.222;2023-08-06T10:14:17;1.55;;;0.60;;
75169;SDS011;63749;49.186;9.222;2023-08-06T10:16:46;0.68;;;0.60;;
75169;SDS011;63749;49.186;9.222;2023-08-06T10:19:12;0.75;;;0.65;;
75169;SDS011;63749;49.186;9.222;2023-08-06T10:21:41;1.08;;;0.60;;
75169;SDS011;63749;49.186;9.222;2023-08-06T10:24:07;0.67;;;0.60;;
75169;SDS011;63749;49.186;9.222;2023-08-06T10:26:36;0.60;;;0.50;;
75169;SDS011;63749;49.186;9.222;2023-08-06T10:29:24;0.60;;;0.60;;
75169;SDS011;63749;49.186;9.222;2023-08-06T10:32:01;1.48;;;0.70;;
75169;SDS011;63749;49.186;9.222;2023-08-06T10:34:48;0.80;;;0.63;;
75169;SDS011;63749;49.186;9.222;2023-08-06T10:37:35;0.60;;;0.60;;
75169;SDS011;63749;49.186;9.222;2023-08-06T10:40:01;0.68;;;0.60;;
75169;SDS011;63749;49.186;9.222;2023-08-06T10:42:28;0.73;;;0.57;;
75169;SDS011;63749;49.186;9.222;2023-08-06T10:47:40;0.60;;;0.60;;
75169;SDS011;63749;49.186;9.222;2023-08-06T10:50:11;1.20;;;0.70;;
75169;SDS011;63749;49.186;9.222;2023-08-06T10:52:38;0.80;;;0.67;;
75169;SDS011;63749;49.186;9.222;2023-08-06T10:55:03;1.17;;;0.80;;
75169;SDS011;63749;49.186;9.222;2023-08-06T10:57:29;0.77;;;0.60;;
75169;SDS011;63749;49.186;9.222;2023-08-06T10:59:54;1.00;;;0.80;;
75169;SDS011;63749;49.186;9.222;2023-08-06T11:02:20;2.57;;;0.80;;
75169;SDS011;63749;49.186;9.222;2023-08-06T11:04:45;0.97;;;0.80;;
75169;SDS011;63749;49.186;9.222;2023-08-06T11:07:10;1.10;;;0.70;;
75169;SDS011;63749;49.186;9.222;2023-08-06T11:09:38;1.08;;;0.88;;
75169;SDS011;63749;49.186;9.222;2023-08-06T11:12:07;1.53;;;1.00;;
75169;SDS011;63749;49.186;9.222;2023-08-06T11:14:35;1.00;;;0.73;;
75169;SDS011;63749;49.186;9.222;2023-08-06T11:17:00;1.00;;;0.90;;
75169;SDS011;63749;49.186;9.222;2023-08-06T11:19:26;0.90;;;0.77;;
75169;SDS011;63749;49.186;9.222;2023-08-06T11:21:51;1.00;;;0.70;;
75169;SDS011;63749;49.186;9.222;2023-08-06T11:24:17;2.13;;;0.90;;
75169;SDS011;63749;49.186;9.222;2023-08-06T11:26:42;1.30;;;1.00;;
75169;SDS011;63749;49.186;9.222;2023-08-06T11:29:09;1.20;;;0.90;;
75169;SDS011;63749;49.186;9.222;2023-08-06T11:31:35;1.13;;;1.00;;
75169;SDS011;63749;49.186;9.222;2023-08-06T11:34:01;2.55;;;1.23;;
75169;SDS011;63749;49.186;9.222;2023-08-06T11:36:33;2.33;;;1.20;;
75169;SDS011;63749;49.186;9.222;2023-08-06T11:39:01;1.80;;;1.20;;
75169;SDS011;63749;49.186;9.222;2023-08-06T11:41:31;2.63;;;1.47;;
75169;SDS011;63749;49.186;9.222;2023-08-06T11:43:57;2.15;;;1.40;;
75169;SDS011;63749;49.186;9.222;2023-08-06T11:46:23;2.00;;;1.50;;
75169;SDS011;63749;49.186;9.222;2023-08-06T11:48:50;3.33;;;1.50;;
75169;SDS011;63749;49.186;9.222;2023-08-06T11:51:24;2.17;;;1.50;;
75169;SDS011;63749;49.186;9.222;2023-08-06T11:53:56;2.43;;;1.57;;
75169;SDS011;63749;49.186;9.222;2023-08-06T11:56:24;1.60;;;1.10;;
75169;SDS011;63749;49.186;9.222;2023-08-06T11:58:54;2.92;;;1.48;;
75169;SDS011;63749;49.186;9.222;2023-08-06T12:01:19;2.83;;;1.38;;
75169;SDS011;63749;49.186;9.222;2023-08-06T12:03:45;1.70;;;1.30;;
75169;SDS011;63749;49.186;9.222;2023-08-06T12:06:10;2.70;;;1.70;;
75169;SDS011;63749;49.186;9.222;2023-08-06T12:08:36;2.72;;;1.70;;
75169;SDS011;63749;49.186;9.222;2023-08-06T12:11:03;3.47;;;1.80;;
75169;SDS011;63749;49.186;9.222;2023-08-06T12:13:28;3.30;;;1.40;;
75169;SDS011;63749;49.186;9.222;2023-08-06T12:15:54;2.83;;;1.67;;
75169;SDS011;63749;49.186;9.222;2023-08-06T12:18:22;6.60;;;1.95;;
75169;SDS011;63749;49.186;9.222;2023-08-06T12:20:47;4.50;;;1.90;;
75169;SDS011;63749;49.186;9.222;2023-08-06T12:23:12;2.20;;;1.70;;
75169;SDS011;63749;49.186;9.222;2023-08-06T12:25:40;4.43;;;2.20;;
75169;SDS011;63749;49.186;9.222;2023-08-06T12:28:06;4.65;;;2.30;;
75169;SDS011;63749;49.186;9.222;2023-08-06T12:30:32;4.25;;;2.58;;
75169;SDS011;63749;49.186;9.222;2023-08-06T12:32:58;3.27;;;1.97;;
75169;SDS011;63749;49.186;9.222;2023-08-06T12:35:23;4.60;;;2.00;;
75169;SDS011;63749;49.186;9.222;2023-08-06T12:37:50;3.90;;;1.98;;
75169;SDS011;63749;49.186;9.222;2023-08-06T12:40:19;4.07;;;2.00;;
75169;SDS011;63749;49.186;9.222;2023-08-06T12:42:44;5.07;;;2.10;;
75169;SDS011;63749;49.186;9.222;2023-08-06T12:45:10;3.83;;;1.80;;
75169;SDS011;63749;49.186;9.222;2023-08-06T12:47:35;3.73;;;2.13;;
75169;SDS011;63749;49.186;9.222;2023-08-06T12:50:00;5.30;;;2.20;;
75169;SDS011;63749;49.186;9.222;2023-08-06T12:52:25;4.23;;;2.50;;
75169;SDS011;63749;49.186;9.222;2023-08-06T12:54:51;4.93;;;2.77;;
75169;SDS011;63749;49.186;9.222;2023-08-06T12:57:16;4.80;;;2.53;;
75169;SDS011;63749;49.186;9.222;2023-08-06T12:59:42;4.63;;;2.43;;
75169;SDS011;63749;49.186;9.222;2023-08-06T13:02:07;5.13;;;2.20;;
75169;SDS011;63749;49.186;9.222;2023-08-06T13:04:33;5.25;;;2.33;;
75169;SDS011;63749;49.186;9.222;2023-08-06T13:06:59;3.60;;;2.03;;
75169;SDS011;63749;49.186;9.222;2023-08-06T13:09:24;5.13;;;2.20;;
75169;SDS011;63749;49.186;9.222;2023-08-06T13:11:51;5.23;;;2.00;;
75169;SDS011;63749;49.186;9.222;2023-08-06T13:14:16;4.53;;;2.40;;
75169;SDS011;63749;49.186;9.222;2023-08-06T13:16:42;6.07;;;2.47;;
75169;SDS011;63749;49.186;9.222;2023-08-06T13:19:08;6.35;;;2.50;;
75169;SDS011;63749;49.186;9.222;2023-08-06T13:22:19;4.20;;;2.60;;
75169;SDS011;63749;49.186;9.222;2023-08-06T13:24:28;5.63;;;2.47;;
75169;SDS011;63749;49.186;9.222;2023-08-06T13:26:53;8.88;;;3.08;;
75169;SDS011;63749;49.186;9.222;2023-08-06T13:29:19;6.07;;;2.97;;
75169;SDS011;63749;49.186;9.222;2023-08-06T13:31:45;9.27;;;2.90;;
75169;SDS011;63749;49.186;9.222;2023-08-06T13:34:10;7.77;;;2.60;;
75169;SDS011;63749;49.186;9.222;2023-08-06T13:36:36;5.43;;;2.40;;
75169;SDS011;63749;49.186;9.222;2023-08-06T13:39:01;6.60;;;2.73;;
75169;SDS011;63749;49.186;9.222;2023-08-06T13:41:28;6.95;;;2.67;;
75169;SDS011;63749;49.186;9.222;2023-08-06T13:43:53;6.13;;;3.40;;
75169;SDS011;63749;49.186;9.222;2023-08-06T13:46:18;5.30;;;2.40;;
75169;SDS011;63749;49.186;9.222;2023-08-06T13:48:45;5.57;;;2.42;;
75169;SDS011;63749;49.186;9.222;2023-08-06T13:51:11;4.15;;;2.15;;
75169;SDS011;63749;49.186;9.222;2023-08-06T13:53:38;3.60;;;1.90;;
75169;SDS011;63749;49.186;9.222;2023-08-06T13:56:06;3.70;;;2.20;;
75169;SDS011;63749;49.186;9.222;2023-08-06T13:58:32;3.05;;;1.85;;
75169;SDS011;63749;49.186;9.222;2023-08-06T14:00:58;4.30;;;2.05;;
75169;SDS011;63749;49.186;9.222;2023-08-06T14:03:24;3.03;;;1.60;;
75169;SDS011;63749;49.186;9.222;2023-08-06T14:05:49;3.30;;;1.60;;
75169;SDS011;63749;49.186;9.222;2023-08-06T14:08:15;4.77;;;1.70;;
75169;SDS011;63749;49.186;9.222;2023-08-06T14:10:43;2.85;;;1.50;;
75169;SDS011;63749;49.186;9.222;2023-08-06T14:13:09;3.70;;;1.37;;
75169;SDS011;63749;49.186;9.222;2023-08-06T14:15:35;1.67;;;1.08;;
75169;SDS011;63749;49.186;9.222;2023-08-06T14:18:00;2.58;;;1.63;;
75169;SDS011;63749;49.186;9.222;2023-08-06T14:20:26;2.87;;;1.50;;
75169;SDS011;63749;49.186;9.222;2023-08-06T14:22:51;2.93;;;1.53;;
75169;SDS011;63749;49.186;9.222;2023-08-06T14:25:17;2.17;;;1.37;;
75169;SDS011;63749;49.186;9.222;2023-08-06T14:27:42;2.72;;;1.23;;
75169;SDS011;63749;49.186;9.222;2023-08-06T14:30:08;3.20;;;1.30;;
75169;SDS011;63749;49.186;9.222;2023-08-06T14:32:33;2.33;;;1.30;;
75169;SDS011;63749;49.186;9.222;2023-08-06T14:34:59;2.20;;;1.30;;
75169;SDS011;63749;49.186;9.222;2023-08-06T14:37:24;2.20;;;1.60;;
75169;SDS011;63749;49.186;9.222;2023-08-06T14:39:50;1.50;;;1.30;;
75169;SDS011;63749;49.186;9.222;2023-08-06T14:42:16;1.40;;;1.20;;
75169;SDS011;63749;49.186;9.222;2023-08-06T14:44:42;2.83;;;1.40;;
75169;SDS011;63749;49.186;9.222;2023-08-06T14:47:08;2.60;;;1.20;;